Latest Weather Observations for Holsworthy

IDN60901

Issued at 10:01 am EDT Saturday 10 December 2016 (issued every 10 minutes, with the page automatically refreshed every 10 minutes)

About weather observations | Map of Sydney area stations | Latest observations for Sydney area | Other Formats
Station Details ID: 066161 Name: HOLSWORTHY AERODROME AWS Lat: -33.99 Lon: 150.95 Height: 68.16 m
Data from the previous 72 hours. | See also: Recent months at Holsworthy
Date/Time
EDT
Temp
°C
App
Temp
°C
Dew
Point
°C
Rel
Hum
%
Delta-T
°C
Wind Press
QNH
hPa
Press
MSL
hPa
Rain since
9am
mm
Dir  Spd
km/h
Gust
km/h
Spd
kts
Gust
kts
10/09:30am 21.0 19.9 11.9 56 5.1 NE 9 20 5 11 1022.7 1022.4 0.0
10/09:00am 20.7 19.7 12.4 59 4.7 E 9 15 5 8 1022.6 1022.3 0.0
10/08:30am 19.5 18.9 11.8 61 4.3 E 6 13 3 7 1022.5 1022.2 0.0
10/08:00am 19.3 18.7 12.3 64 3.9 E 7 11 4 6 1022.5 1022.2 0.0
10/07:30am 16.3 15.8 12.1 76 2.3 W 6 7 3 4 1022.2 1021.9 0.0
10/07:00am 14.1 13.4 11.3 83 1.5 W 6 7 3 4 1021.9 1021.6 0.0
10/06:30am 13.3 12.4 10.8 85 1.3 WSW 6 7 3 4 1021.4 1021.1 0.0
10/06:00am 11.9 10.7 10.3 90 0.8 WSW 7 9 4 5 1020.9 1020.6 0.0
10/05:30am 11.8 11.4 9.9 88 1.0 SW 2 7 1 4 1020.5 1020.2 0.0
10/05:00am 12.4 10.8 10.1 86 1.2 S 9 9 5 5 1020.2 1019.9 0.0
10/04:30am 13.0 11.4 10.2 83 1.5 S 9 11 5 6 1020.0 1019.7 0.0
10/04:00am 14.2 12.4 10.8 80 1.8 SSW 11 13 6 7 1019.7 1019.4 0.0
10/03:30am 13.0 11.8 10.4 84 1.4 WSW 7 11 4 6 1019.6 1019.3 0.0
10/03:00am 13.7 12.5 10.3 80 1.8 SSW 7 9 4 5 1019.4 1019.1 0.0
10/02:30am 14.6 13.3 11.2 80 1.8 SSW 9 9 5 5 1019.4 1019.1 0.0
10/02:00am 13.8 12.6 10.2 79 1.9 SW 7 9 4 5 1019.5 1019.2 0.0
10/01:30am 14.9 13.4 10.5 75 2.3 SSW 9 11 5 6 1019.2 1018.9 0.0
10/01:00am 15.2 13.7 10.6 74 2.4 SW 9 11 5 6 1019.4 1019.1 0.0
10/12:30am 16.2 14.9 11.2 72 2.7 SSW 9 13 5 7 1019.4 1019.1 0.0
10/12:00am 14.4 13.0 10.8 79 1.9 SW 9 11 5 6 1019.4 1019.1 0.0
 
Date/Time
EDT
Temp
°C
App
Temp
°C
Dew
Point
°C
Rel
Hum
%
Delta-T
°C
Wind Press
QNH
hPa
Press
MSL
hPa
Rain since
9am
mm
Dir  Spd
km/h
Gust
km/h
Spd
kts
Gust
kts
09/11:30pm 14.1 14.0 10.7 80 1.8 SW 2 9 1 5 1019.2 1018.9 0.0
09/11:00pm 14.6 14.1 10.6 77 2.1 SSW 4 6 2 3 1019.0 1018.7 0.0
09/10:30pm 15.1 14.2 10.5 74 2.4 SSE 6 7 3 4 1018.7 1018.4 0.0
09/10:00pm 16.2 15.1 10.1 67 3.2 SSE 6 7 3 4 1018.4 1018.1 0.0
09/09:30pm 17.6 16.0 10.2 62 3.9 SSE 9 13 5 7 1017.9 1017.6 0.0
09/09:00pm 18.0 16.6 9.6 58 4.4 ESE 7 11 4 6 1017.3 1017.0 0.0
09/08:30pm 18.4 15.8 9.2 55 4.8 SE 13 20 7 11 1016.5 1016.2 0.0
09/08:00pm 19.0 15.0 9.2 53 5.2 SE 20 32 11 17 1015.8 1015.5 0.0
09/07:30pm 19.5 15.0 10.0 54 5.1 SE 24 32 13 17 1015.1 1014.8 0.0
09/07:00pm 20.4 16.4 10.5 53 5.4 SE 22 35 12 19 1014.4 1014.1 0.0
09/06:30pm 21.0 16.8 11.1 53 5.5 SE 24 32 13 17 1013.5 1013.3 0.0
09/06:00pm 21.6 17.5 11.3 52 5.7 ESE 24 35 13 19 1012.5 1012.3 0.0
09/05:30pm 22.5 18.4 11.6 50 6.1 ESE 24 35 13 19 1011.8 1011.6 0.0
09/05:00pm 22.8 19.5 11.5 49 6.3 ESE 20 33 11 18 1011.3 1011.1 0.0
09/04:30pm 26.6 20.8 -0.4 17 12.5 WSW 20 33 11 18 1010.8 1010.6 0.0
09/04:00pm 26.1 19.9 0.0 18 12.2 WSW 22 39 12 21 1010.5 1010.3 0.0
09/03:30pm 26.5 21.0 1.7 20 11.9 WSW 20 30 11 16 1010.2 1010.0 0.0
09/03:00pm 25.9 20.3 1.2 20 11.7 W 20 39 11 21 1010.2 1010.0 0.0
09/02:30pm 24.9 18.6 -1.0 18 11.7 WNW 22 35 12 19 1010.1 1009.8 0.0
09/02:00pm 25.5 19.5 0.9 20 11.6 WSW 22 33 12 18 1010.1 1009.8 0.0
09/01:30pm 24.4 18.2 0.0 20 11.2 W 22 41 12 22 1010.2 1010.0 0.0
09/01:08pm 24.2 17.1 1.2 22 10.8 WSW 28 46 15 25 1010.1 1009.8 0.0
09/01:00pm 24.6 18.4 2.1 23 10.8 W 24 41 13 22 1010.0 1009.7 0.0
09/12:30pm 23.5 17.0 2.9 26 9.9 W 26 46 14 25 1009.9 1009.6 0.0
09/12:29pm 23.7 17.3 3.1 26 10.0 WNW 26 46 14 25 1009.9 1009.6 0.0
09/12:00pm 23.1 17.0 4.6 30 9.2 W 26 43 14 23 1010.1 1009.8 0.0
09/11:30am 22.7 16.0 5.6 33 8.6 W 30 50 16 27 1010.0 1009.7 0.0
09/11:00am 22.0 15.7 5.8 35 8.2 W 28 48 15 26 1009.6 1009.3 0.0
09/10:49am 21.8 15.4 5.3 34 8.2 W 28 46 15 25 1009.6 1009.3 0.0
09/10:30am 21.9 15.9 5.3 34 8.3 WSW 26 44 14 24 1009.4 1009.1 0.0
09/10:02am 20.8 14.3 4.8 35 7.8 W 28 46 15 25 1009.0 1008.7 0.0
09/10:00am 21.3 15.3 5.2 35 8.0 W 26 41 14 22 1009.0 1008.7 0.0
09/09:30am 20.4 13.1 5.6 38 7.3 W 33 56 18 30 1008.6 1008.3 0.0
09/09:00am 20.0 12.9 5.6 39 7.1 W 32 50 17 27 1008.6 1008.3 0.0
09/08:33am 19.0 12.6 5.1 40 6.8 W 28 50 15 27 1008.5 1008.2 0.0
09/08:30am 19.2 12.7 6.3 43 6.4 WSW 30 46 16 25 1008.6 1008.3 0.0
09/08:00am 18.6 12.3 5.8 43 6.3 W 28 54 15 29 1008.4 1008.1 0.0
09/07:51am 18.4 11.7 5.6 43 6.3 W 30 54 16 29 1008.1 1007.8 0.0
09/07:30am 18.3 12.8 5.8 44 6.1 WSW 24 43 13 23 1007.9 1007.6 0.0
09/07:00am 17.9 13.1 5.8 45 5.9 W 20 32 11 17 1007.4 1007.1 0.0
09/06:30am 17.6 12.4 5.5 45 5.9 WSW 22 35 12 19 1006.8 1006.5 0.0
09/06:00am 17.5 11.2 5.8 46 5.7 WSW 28 46 15 25 1006.5 1006.2 0.0
09/05:52am 17.5 11.2 5.8 46 5.7 WSW 28 46 15 25 1006.4 1006.1 0.0
09/05:30am 17.5 12.4 6.1 47 5.6 WSW 22 33 12 18 1005.9 1005.6 0.0
09/05:00am 17.8 13.2 6.3 47 5.7 WSW 20 35 11 19 1005.2 1004.9 0.0
09/04:30am 17.9 14.0 7.0 49 5.5 WSW 17 26 9 14 1004.8 1004.5 0.0
09/04:00am 18.0 13.7 7.1 49 5.5 WSW 19 30 10 16 1004.3 1004.0 0.0
09/03:30am 18.5 13.7 7.3 48 5.7 WSW 22 43 12 23 1004.0 1003.7 0.0
09/03:00am 18.8 13.1 6.9 46 6.0 WSW 26 48 14 26 1003.4 1003.1 0.0
09/02:58am 18.9 13.6 6.7 45 6.1 WSW 24 48 13 26 1003.4 1003.1 0.0
09/02:56am 19.0 14.1 6.8 45 6.1 WSW 22 48 12 26 1003.3 1003.0 0.0
09/02:30am 19.1 15.2 6.9 45 6.2 WSW 17 30 9 16 1003.0 1002.7 0.0
09/02:00am 19.7 15.6 6.1 41 6.8 WSW 17 28 9 15 1002.4 1002.1 0.0
09/01:30am 20.2 15.4 5.8 39 7.2 W 20 33 11 18 1002.1 1001.8 0.0
09/01:00am 20.6 14.9 6.5 40 7.2 W 26 41 14 22 1001.2 1000.9 0.0
09/12:30am 21.3 13.2 8.6 44 6.7 WSW 41 70 22 38 1000.9 1000.6 0.0
09/12:18am 22.3 16.4 12.5 53 5.6 WSW 35 54 19 29 1000.5 1000.2 0.0
09/12:00am 24.6 20.5 15.0 55 5.8 WSW 30 46 16 25 999.0 998.8 0.0
 
Date/Time
EDT
Temp
°C
App
Temp
°C
Dew
Point
°C
Rel
Hum
%
Delta-T
°C
Wind Press
QNH
hPa
Press
MSL
hPa
Rain since
9am
mm
Dir  Spd
km/h
Gust
km/h
Spd
kts
Gust
kts
08/11:56pm 24.8 21.1 14.9 54 5.9 WSW 28 46 15 25 999.3 999.0 0.0
08/11:52pm 25.1 22.1 14.9 53 6.1 W 24 46 13 25 999.4 999.1 0.0
08/11:30pm 25.1 24.5 14.6 52 6.3 NNW 11 15 6 8 998.8 998.6 0.0
08/11:00pm 25.5 25.7 14.6 51 6.6 WNW 7 11 4 6 998.6 998.4 0.0
08/10:30pm 25.9 24.2 14.7 50 6.7 WSW 17 24 9 13 999.3 999.0 0.0
08/10:00pm 26.9 24.1 14.3 46 7.6 WSW 22 39 12 21 999.4 999.1 0.0
08/09:30pm 27.5 25.8 14.8 45 7.7 WSW 17 26 9 14 999.3 999.0 0.0
08/09:00pm 27.9 26.6 16.8 50 7.0 WSW 19 32 10 17 998.5 998.3 0.0
08/08:36pm 27.2 28.3 20.5 67 4.4 ESE 15 41 8 22 998.0 997.8 0.0
08/08:30pm 27.3 29.6 20.6 67 4.4 ENE 9 17 5 9 996.6 996.3 0.0
08/08:00pm 27.6 29.0 20.4 65 4.8 E 13 24 7 13 996.3 996.0 0.0
08/07:30pm 28.4 29.4 20.2 61 5.4 E 15 22 8 12 996.2 995.9 0.0
08/07:00pm 29.3 29.6 19.6 56 6.4 ENE 17 24 9 13 996.4 996.1 0.0
08/06:30pm 29.2 29.8 19.5 56 6.3 ENE 15 26 8 14 996.4 996.1 0.0
08/06:00pm 29.3 29.4 19.9 57 6.2 E 19 28 10 15 996.5 996.2 0.0
08/05:30pm 29.2 29.4 20.1 58 6.0 E 19 26 10 14 996.6 996.3 0.0
08/05:00pm 30.0 30.3 20.8 57 6.2 E 20 30 11 16 996.8 996.5 0.0
08/04:30pm 29.6 29.3 19.6 55 6.5 E 20 32 11 17 997.4 997.1 0.0
08/04:00pm 29.7 29.6 20.0 56 6.4 E 20 32 11 17 997.9 997.7 0.0
08/03:30pm 29.6 29.1 19.9 56 6.4 ENE 22 30 12 16 998.6 998.4 0.0
08/03:00pm 29.6 28.8 19.3 54 6.7 ENE 22 32 12 17 999.4 999.1 0.0
08/02:30pm 29.7 28.1 19.1 53 6.9 E 26 35 14 19 1000.1 999.8 0.0
08/02:00pm 29.3 28.2 18.7 52 6.9 E 22 35 12 19 1000.7 1000.4 0.0
08/01:30pm 30.2 29.8 18.9 50 7.3 E 19 26 10 14 1001.5 1001.2 0.0
08/01:00pm 29.5 29.2 18.3 51 7.2 ENE 17 24 9 13 1002.4 1002.1 0.0
08/12:30pm 29.6 29.2 18.1 50 7.4 NE 17 26 9 14 1003.2 1002.9 0.0
08/12:00pm 29.0 28.9 17.8 50 7.2 NE 15 24 8 13 1004.0 1003.7 0.0
08/11:30am 27.9 27.2 17.4 52 6.6 NNE 17 24 9 13 1004.7 1004.4 0.0
08/11:00am 27.7 28.0 17.8 54 6.3 NNE 13 22 7 12 1005.6 1005.3 0.0
08/10:30am 25.7 25.5 16.8 58 5.5 NNE 13 19 7 10 1006.5 1006.2 0.0
08/10:00am 24.0 24.0 16.3 62 4.7 N 11 17 6 9 1007.1 1006.8 0.0
08/09:30am 23.2 23.8 16.7 67 4.0 NNW 9 15 5 8 1007.8 1007.5 0.0
08/09:00am 22.5 23.0 16.5 69 3.7 N 9 13 5 7 1008.7 1008.4 0.0
08/08:30am 22.1 23.7 17.0 73 3.1 N 4 9 2 5 1009.3 1009.0 0.0
08/08:00am 21.0 21.8 16.4 75 2.8 NNW 7 13 4 7 1009.8 1009.5 0.0
08/07:30am 20.1 20.0 16.1 78 2.4 NE 11 13 6 7 1009.9 1009.6 0.0
08/07:00am 19.6 20.0 16.3 81 2.0 NNE 9 15 5 8 1010.1 1009.8 0.0
08/06:30am 18.8 20.1 16.2 85 1.6 NE 4 7 2 4 1010.1 1009.8 0.0
08/06:00am 18.5 19.3 16.3 87 1.3 NE 7 9 4 5 1010.2 1010.0 0.0
08/05:30am 18.5 19.5 16.3 87 1.3 NNE 6 7 3 4 1010.2 1010.0 0.0
08/05:00am 18.7 19.5 16.3 86 1.4 NNE 7 9 4 5 1010.4 1010.2 0.0
08/04:30am 19.1 19.9 16.3 84 1.7 NE 7 11 4 6 1010.6 1010.4 0.0
08/04:00am 19.5 20.3 16.3 82 1.9 NNE 7 9 4 5 1010.8 1010.6 0.0
08/03:30am 19.7 20.5 16.3 81 2.0 N 7 11 4 6 1011.0 1010.8 0.0
08/03:00am 19.8 19.9 16.4 81 2.0 N 11 17 6 9 1011.6 1011.4 0.0
08/02:30am 19.8 20.2 16.4 81 2.0 NNE 9 17 5 9 1012.1 1011.9 0.0
08/02:00am 19.8 20.2 16.4 81 2.0 NNE 9 11 5 6 1012.4 1012.2 0.0
08/01:30am 19.9 19.2 16.3 80 2.2 N 15 22 8 12 1012.9 1012.7 0.0
08/01:00am 19.9 20.0 16.5 81 2.1 N 11 15 6 8 1013.2 1013.0 0.0
08/12:30am 20.1 20.3 16.7 81 2.1 NNE 11 15 6 8 1013.5 1013.3 0.0
08/12:00am 20.3 19.3 16.5 79 2.3 NNE 17 22 9 12 1014.0 1013.8 0.0
 
Date/Time
EDT
Temp
°C
App
Temp
°C
Dew
Point
°C
Rel
Hum
%
Delta-T
°C
Wind Press
QNH
hPa
Press
MSL
hPa
Rain since
9am
mm
Dir  Spd
km/h
Gust
km/h
Spd
kts
Gust
kts
07/11:30pm 20.5 20.3 16.7 79 2.3 NNE 13 20 7 11 1014.1 1013.9 0.0
07/11:00pm 20.5 20.7 16.7 79 2.3 NNE 11 15 6 8 1014.5 1014.2 0.0
07/10:30pm 20.5 20.9 16.3 77 2.5 NE 9 15 5 8 1014.6 1014.3 0.0
07/10:00pm 20.6 21.0 16.4 77 2.5 NE 9 15 5 8 1014.6 1014.3 0.0
07/09:30pm 20.4 20.8 16.4 78 2.4 ENE 9 13 5 7 1014.5 1014.2 0.0
07/09:00pm 20.5 20.1 16.1 76 2.6 ENE 13 20 7 11 1014.4 1014.1 0.0
07/08:30pm 20.8 20.4 16.2 75 2.8 ENE 13 20 7 11 1014.4 1014.1 0.0
07/08:00pm 21.0 20.2 16.0 73 3.0 NE 15 24 8 13 1014.2 1014.0 0.0
07/07:30pm 21.3 20.1 16.0 72 3.2 ENE 17 26 9 14 1013.9 1013.7 0.0
07/07:00pm 21.8 20.2 16.1 70 3.4 ENE 19 28 10 15 1013.8 1013.6 0.0
07/06:30pm 22.2 20.5 15.8 67 3.9 E 19 28 10 15 1013.8 1013.6 0.0
07/06:00pm 23.0 21.2 16.1 65 4.2 E 20 30 11 16 1013.5 1013.3 0.0
07/05:30pm 23.0 21.3 16.3 66 4.1 ESE 20 32 11 17 1013.4 1013.2 0.0
07/05:00pm 22.9 20.6 15.7 64 4.3 E 22 32 12 17 1013.5 1013.3 0.0
07/04:30pm 23.4 21.2 16.0 63 4.5 E 22 32 12 17 1013.7 1013.5 0.0
07/04:00pm 23.5 21.2 15.8 62 4.7 E 22 30 12 16 1013.7 1013.5 0.0
07/03:30pm 23.4 21.5 15.7 62 4.7 E 20 30 11 16 1013.8 1013.6 0.0
07/03:00pm 24.2 22.6 16.5 62 4.7 E 20 30 11 16 1014.1 1013.9 0.0
07/02:30pm 23.9 22.1 15.4 59 5.1 E 19 28 10 15 1014.5 1014.2 0.0
07/02:00pm 23.7 22.5 16.2 63 4.6 ESE 17 26 9 14 1014.8 1014.5 0.0
07/01:30pm 23.7 22.0 16.2 63 4.6 ESE 20 32 11 17 1015.0 1014.7 0.0
07/01:00pm 23.0 21.3 15.8 64 4.3 E 19 28 10 15 1015.2 1014.9 0.0
07/12:30pm 24.5 23.7 17.2 63 4.5 ENE 17 26 9 14 1015.3 1015.0 0.0
07/12:00pm 23.6 23.0 16.6 65 4.3 E 15 24 8 13 1015.7 1015.4 0.0
07/11:30am 24.0 23.7 16.5 63 4.6 E 13 19 7 10 1015.9 1015.6 0.0
07/11:00am 22.0 22.1 15.6 67 3.8 ESE 9 15 5 8 1016.0 1015.7 0.0
07/10:30am 22.2 22.3 16.5 70 3.5 ESE 11 19 6 10 1015.9 1015.6 0.0

Latest Capital City Observations: Canberra | Sydney | Melbourne | Brisbane | Adelaide | Perth | Hobart | Darwin

Other Formats:

Comma delimited format used in spreadsheet applications
http://www.bom.gov.au/fwo/IDN60901/IDN60901.95761.axf

JavaScript Object Notation format (JSON) in row-major order
http://www.bom.gov.au/fwo/IDN60901/IDN60901.95761.json